ZPPP

Kunming Wujiaba International Airport

Kunming, China
TAF ZPPP 240108Z 2406/2506 22006MPS 9999 SCT020 BKN036 TX19/2408Z TN11/2423Z
Issued Valid From Valid To
Oct-24 @ 01:08 UTC
(5 hours ago)
Oct-24 @ 06:00 UTC
(3 minutes ago)
Oct-25 @ 06:00 UTC
(in 24 hours)
Oct-24 @ 06:00 to Oct-25 @ 06:00
TAF ZPPP 240108Z 2406/2506 22006MPS 9999 SCT020 BKN036 TX19/2408Z TN11/2423Z
Wind Visibility Clouds
220° at 12 knots 10,000+ meters
  • Scattered at 2,000' AGL
  • Broken at 3,600' AGL
TAF ZPPP 240108Z 2406/2506 22006MPS 9999 SCT020 BKN036 TX19/2408Z TN11/2423Z
Issued Oct-24 @ 01:08 UTC
(5 hours ago)
Valid From Oct-24 @ 06:00 UTC
(3 minutes ago)
Valid To Oct-25 @ 06:00 UTC
(in 24 hours)
Oct-24 @ 06:00 - Oct-25 @ 06:00
Wind Visibility
220° at 12 knots 10,000+ meters
Clouds
  • Scattered at 2,000' AGL
  • Broken at 3,600' AGL